sensor_id;sensor_type;location;lat;lon;timestamp;P1;durP1;ratioP1;P2;durP2;ratioP2
79124;SDS011;68527;39.470;-0.376;2023-12-28T00:00:06;9.40;;;6.30;;
79124;SDS011;68527;39.470;-0.376;2023-12-28T00:02:32;10.40;;;6.90;;
79124;SDS011;68527;39.470;-0.376;2023-12-28T00:04:58;9.40;;;6.10;;
79124;SDS011;68527;39.470;-0.376;2023-12-28T00:07:24;10.80;;;6.50;;
79124;SDS011;68527;39.470;-0.376;2023-12-28T00:12:16;7.90;;;5.50;;
79124;SDS011;68527;39.470;-0.376;2023-12-28T00:14:42;9.40;;;6.00;;
79124;SDS011;68527;39.470;-0.376;2023-12-28T00:17:11;9.60;;;6.40;;
79124;SDS011;68527;39.470;-0.376;2023-12-28T00:19:38;11.30;;;6.20;;
79124;SDS011;68527;39.470;-0.376;2023-12-28T00:22:03;10.00;;;6.00;;
79124;SDS011;68527;39.470;-0.376;2023-12-28T00:24:29;8.80;;;6.30;;
79124;SDS011;68527;39.470;-0.376;2023-12-28T00:26:55;7.50;;;5.90;;
79124;SDS011;68527;39.470;-0.376;2023-12-28T00:29:22;8.80;;;5.40;;
79124;SDS011;68527;39.470;-0.376;2023-12-28T00:31:48;9.20;;;7.10;;
79124;SDS011;68527;39.470;-0.376;2023-12-28T00:34:14;10.30;;;6.10;;
79124;SDS011;68527;39.470;-0.376;2023-12-28T00:39:06;8.60;;;6.20;;
79124;SDS011;68527;39.470;-0.376;2023-12-28T00:41:33;9.00;;;6.00;;
79124;SDS011;68527;39.470;-0.376;2023-12-28T00:43:59;7.40;;;5.80;;
79124;SDS011;68527;39.470;-0.376;2023-12-28T00:46:36;9.10;;;5.60;;
79124;SDS011;68527;39.470;-0.376;2023-12-28T00:49:01;9.30;;;6.20;;
79124;SDS011;68527;39.470;-0.376;2023-12-28T00:51:30;10.20;;;5.40;;
79124;SDS011;68527;39.470;-0.376;2023-12-28T00:53:57;9.10;;;5.80;;
79124;SDS011;68527;39.470;-0.376;2023-12-28T00:56:25;8.70;;;5.80;;
79124;SDS011;68527;39.470;-0.376;2023-12-28T00:58:51;9.40;;;6.00;;
79124;SDS011;68527;39.470;-0.376;2023-12-28T01:01:18;8.90;;;5.30;;
79124;SDS011;68527;39.470;-0.376;2023-12-28T01:03:44;7.90;;;6.10;;
79124;SDS011;68527;39.470;-0.376;2023-12-28T01:06:10;9.30;;;6.20;;
79124;SDS011;68527;39.470;-0.376;2023-12-28T01:11:02;9.10;;;5.60;;
79124;SDS011;68527;39.470;-0.376;2023-12-28T01:13:28;8.20;;;6.20;;
79124;SDS011;68527;39.470;-0.376;2023-12-28T01:15:54;10.70;;;6.20;;
79124;SDS011;68527;39.470;-0.376;2023-12-28T01:20:46;7.20;;;5.30;;
79124;SDS011;68527;39.470;-0.376;2023-12-28T01:23:12;9.40;;;5.70;;
79124;SDS011;68527;39.470;-0.376;2023-12-28T01:28:10;7.40;;;5.40;;
79124;SDS011;68527;39.470;-0.376;2023-12-28T01:30:39;9.10;;;6.10;;
79124;SDS011;68527;39.470;-0.376;2023-12-28T01:33:05;8.20;;;5.50;;
79124;SDS011;68527;39.470;-0.376;2023-12-28T01:35:32;10.60;;;6.20;;
79124;SDS011;68527;39.470;-0.376;2023-12-28T01:37:58;9.20;;;6.10;;
79124;SDS011;68527;39.470;-0.376;2023-12-28T01:40:25;8.30;;;5.30;;
79124;SDS011;68527;39.470;-0.376;2023-12-28T01:42:51;8.30;;;5.80;;
79124;SDS011;68527;39.470;-0.376;2023-12-28T01:47:43;8.20;;;5.30;;
79124;SDS011;68527;39.470;-0.376;2023-12-28T01:50:09;8.00;;;5.70;;
79124;SDS011;68527;39.470;-0.376;2023-12-28T01:55:02;7.60;;;5.10;;
79124;SDS011;68527;39.470;-0.376;2023-12-28T01:57:29;8.70;;;5.90;;
79124;SDS011;68527;39.470;-0.376;2023-12-28T01:59:55;9.00;;;5.50;;
79124;SDS011;68527;39.470;-0.376;2023-12-28T02:02:23;7.00;;;5.20;;
79124;SDS011;68527;39.470;-0.376;2023-12-28T02:04:49;8.50;;;5.50;;
79124;SDS011;68527;39.470;-0.376;2023-12-28T02:07:15;8.70;;;5.50;;
79124;SDS011;68527;39.470;-0.376;2023-12-28T02:09:41;7.50;;;5.10;;
79124;SDS011;68527;39.470;-0.376;2023-12-28T02:12:09;8.30;;;5.00;;
79124;SDS011;68527;39.470;-0.376;2023-12-28T02:14:37;8.90;;;5.70;;
79124;SDS011;68527;39.470;-0.376;2023-12-28T02:21:59;8.10;;;5.40;;
79124;SDS011;68527;39.470;-0.376;2023-12-28T02:24:25;6.70;;;4.40;;
79124;SDS011;68527;39.470;-0.376;2023-12-28T02:26:53;7.80;;;4.70;;
79124;SDS011;68527;39.470;-0.376;2023-12-28T02:29:19;7.20;;;4.80;;
79124;SDS011;68527;39.470;-0.376;2023-12-28T02:31:58;7.30;;;5.20;;
79124;SDS011;68527;39.470;-0.376;2023-12-28T02:34:28;8.90;;;5.30;;
79124;SDS011;68527;39.470;-0.376;2023-12-28T02:36:57;8.70;;;4.90;;
79124;SDS011;68527;39.470;-0.376;2023-12-28T02:39:27;8.40;;;5.20;;
79124;SDS011;68527;39.470;-0.376;2023-12-28T02:41:54;7.00;;;4.40;;
79124;SDS011;68527;39.470;-0.376;2023-12-28T02:46:48;6.70;;;4.70;;
79124;SDS011;68527;39.470;-0.376;2023-12-28T02:49:14;7.00;;;4.70;;
79124;SDS011;68527;39.470;-0.376;2023-12-28T02:51:40;6.90;;;4.20;;
79124;SDS011;68527;39.470;-0.376;2023-12-28T02:54:09;6.10;;;4.50;;
79124;SDS011;68527;39.470;-0.376;2023-12-28T02:56:35;6.70;;;4.70;;
79124;SDS011;68527;39.470;-0.376;2023-12-28T02:59:01;8.00;;;4.70;;
79124;SDS011;68527;39.470;-0.376;2023-12-28T03:01:27;6.20;;;4.50;;
79124;SDS011;68527;39.470;-0.376;2023-12-28T03:03:55;6.70;;;4.40;;
79124;SDS011;68527;39.470;-0.376;2023-12-28T03:06:20;5.30;;;3.90;;
79124;SDS011;68527;39.470;-0.376;2023-12-28T03:08:46;6.20;;;4.00;;
79124;SDS011;68527;39.470;-0.376;2023-12-28T03:11:12;6.80;;;4.50;;
79124;SDS011;68527;39.470;-0.376;2023-12-28T03:13:39;6.50;;;4.40;;
79124;SDS011;68527;39.470;-0.376;2023-12-28T03:16:04;6.50;;;3.80;;
79124;SDS011;68527;39.470;-0.376;2023-12-28T03:18:30;5.70;;;4.10;;
79124;SDS011;68527;39.470;-0.376;2023-12-28T03:20:56;6.90;;;4.00;;
79124;SDS011;68527;39.470;-0.376;2023-12-28T03:23:23;4.80;;;4.00;;
79124;SDS011;68527;39.470;-0.376;2023-12-28T03:25:49;7.10;;;4.10;;
79124;SDS011;68527;39.470;-0.376;2023-12-28T03:28:14;6.10;;;4.10;;
79124;SDS011;68527;39.470;-0.376;2023-12-28T03:30:40;6.00;;;4.10;;
79124;SDS011;68527;39.470;-0.376;2023-12-28T03:33:07;5.10;;;3.60;;
79124;SDS011;68527;39.470;-0.376;2023-12-28T03:35:33;6.30;;;4.20;;
79124;SDS011;68527;39.470;-0.376;2023-12-28T03:37:59;6.40;;;4.00;;
79124;SDS011;68527;39.470;-0.376;2023-12-28T03:40:25;6.10;;;4.20;;
79124;SDS011;68527;39.470;-0.376;2023-12-28T03:42:52;6.00;;;4.00;;
79124;SDS011;68527;39.470;-0.376;2023-12-28T03:45:18;6.10;;;3.90;;
79124;SDS011;68527;39.470;-0.376;2023-12-28T03:47:45;5.90;;;3.50;;
79124;SDS011;68527;39.470;-0.376;2023-12-28T03:50:11;6.30;;;3.40;;
79124;SDS011;68527;39.470;-0.376;2023-12-28T03:52:38;5.60;;;3.50;;
79124;SDS011;68527;39.470;-0.376;2023-12-28T03:55:04;5.10;;;3.50;;
79124;SDS011;68527;39.470;-0.376;2023-12-28T03:57:30;4.90;;;3.40;;
79124;SDS011;68527;39.470;-0.376;2023-12-28T04:02:23;4.60;;;2.90;;
79124;SDS011;68527;39.470;-0.376;2023-12-28T04:04:49;5.30;;;3.40;;
79124;SDS011;68527;39.470;-0.376;2023-12-28T04:07:15;4.20;;;3.20;;
79124;SDS011;68527;39.470;-0.376;2023-12-28T04:09:41;5.40;;;3.40;;
79124;SDS011;68527;39.470;-0.376;2023-12-28T04:14:34;4.80;;;3.30;;
79124;SDS011;68527;39.470;-0.376;2023-12-28T04:17:00;5.20;;;3.40;;
79124;SDS011;68527;39.470;-0.376;2023-12-28T04:19:26;4.70;;;3.20;;
79124;SDS011;68527;39.470;-0.376;2023-12-28T04:21:53;4.60;;;3.40;;
79124;SDS011;68527;39.470;-0.376;2023-12-28T04:24:21;4.40;;;3.20;;
79124;SDS011;68527;39.470;-0.376;2023-12-28T04:26:46;3.80;;;2.90;;
79124;SDS011;68527;39.470;-0.376;2023-12-28T04:29:14;4.30;;;2.90;;
79124;SDS011;68527;39.470;-0.376;2023-12-28T04:31:40;3.50;;;2.80;;
79124;SDS011;68527;39.470;-0.376;2023-12-28T04:34:10;4.50;;;2.90;;
79124;SDS011;68527;39.470;-0.376;2023-12-28T04:36:41;4.40;;;3.00;;
79124;SDS011;68527;39.470;-0.376;2023-12-28T04:39:08;4.60;;;3.10;;
79124;SDS011;68527;39.470;-0.376;2023-12-28T04:41:36;5.20;;;2.80;;
79124;SDS011;68527;39.470;-0.376;2023-12-28T04:44:02;4.60;;;2.80;;
79124;SDS011;68527;39.470;-0.376;2023-12-28T04:46:28;5.00;;;3.10;;
79124;SDS011;68527;39.470;-0.376;2023-12-28T04:51:21;3.60;;;2.60;;
79124;SDS011;68527;39.470;-0.376;2023-12-28T04:53:46;4.40;;;3.00;;
79124;SDS011;68527;39.470;-0.376;2023-12-28T04:56:12;7.80;;;3.00;;
79124;SDS011;68527;39.470;-0.376;2023-12-28T04:58:38;4.00;;;2.90;;
79124;SDS011;68527;39.470;-0.376;2023-12-28T05:01:06;5.30;;;2.90;;
79124;SDS011;68527;39.470;-0.376;2023-12-28T05:03:31;5.30;;;2.90;;
79124;SDS011;68527;39.470;-0.376;2023-12-28T05:05:57;5.10;;;2.80;;
79124;SDS011;68527;39.470;-0.376;2023-12-28T05:08:23;3.90;;;2.80;;
79124;SDS011;68527;39.470;-0.376;2023-12-28T05:10:50;4.20;;;3.00;;
79124;SDS011;68527;39.470;-0.376;2023-12-28T05:13:15;4.10;;;2.90;;
79124;SDS011;68527;39.470;-0.376;2023-12-28T05:15:41;4.20;;;2.80;;
79124;SDS011;68527;39.470;-0.376;2023-12-28T05:18:07;3.80;;;2.80;;
79124;SDS011;68527;39.470;-0.376;2023-12-28T05:20:35;6.40;;;3.10;;
79124;SDS011;68527;39.470;-0.376;2023-12-28T05:23:01;4.30;;;3.00;;
79124;SDS011;68527;39.470;-0.376;2023-12-28T05:25:26;4.40;;;2.70;;
79124;SDS011;68527;39.470;-0.376;2023-12-28T05:27:52;5.80;;;2.60;;
79124;SDS011;68527;39.470;-0.376;2023-12-28T05:30:19;5.60;;;2.70;;
79124;SDS011;68527;39.470;-0.376;2023-12-28T05:32:45;4.60;;;2.70;;
79124;SDS011;68527;39.470;-0.376;2023-12-28T05:35:10;4.60;;;2.90;;
79124;SDS011;68527;39.470;-0.376;2023-12-28T05:37:36;4.40;;;2.80;;
79124;SDS011;68527;39.470;-0.376;2023-12-28T05:40:03;6.10;;;2.40;;
79124;SDS011;68527;39.470;-0.376;2023-12-28T05:42:29;5.70;;;2.80;;
79124;SDS011;68527;39.470;-0.376;2023-12-28T05:44:55;5.70;;;2.90;;
79124;SDS011;68527;39.470;-0.376;2023-12-28T05:47:21;3.20;;;2.30;;
79124;SDS011;68527;39.470;-0.376;2023-12-28T05:49:48;4.10;;;2.50;;
79124;SDS011;68527;39.470;-0.376;2023-12-28T05:52:13;3.50;;;2.60;;
79124;SDS011;68527;39.470;-0.376;2023-12-28T05:54:41;4.30;;;2.90;;
79124;SDS011;68527;39.470;-0.376;2023-12-28T05:57:11;4.20;;;2.70;;
79124;SDS011;68527;39.470;-0.376;2023-12-28T05:59:37;4.30;;;2.50;;
79124;SDS011;68527;39.470;-0.376;2023-12-28T06:02:04;4.90;;;2.50;;
79124;SDS011;68527;39.470;-0.376;2023-12-28T06:04:32;4.10;;;2.80;;
79124;SDS011;68527;39.470;-0.376;2023-12-28T06:06:59;5.30;;;2.50;;
79124;SDS011;68527;39.470;-0.376;2023-12-28T06:09:24;4.30;;;2.70;;
79124;SDS011;68527;39.470;-0.376;2023-12-28T06:11:54;4.50;;;2.40;;
79124;SDS011;68527;39.470;-0.376;2023-12-28T06:14:20;4.80;;;2.60;;
79124;SDS011;68527;39.470;-0.376;2023-12-28T06:16:46;4.00;;;2.40;;
79124;SDS011;68527;39.470;-0.376;2023-12-28T06:19:11;5.70;;;3.10;;
79124;SDS011;68527;39.470;-0.376;2023-12-28T06:21:39;4.30;;;2.60;;
79124;SDS011;68527;39.470;-0.376;2023-12-28T06:24:04;4.70;;;2.30;;
79124;SDS011;68527;39.470;-0.376;2023-12-28T06:26:30;3.50;;;2.30;;
79124;SDS011;68527;39.470;-0.376;2023-12-28T06:31:23;3.00;;;2.00;;
79124;SDS011;68527;39.470;-0.376;2023-12-28T06:33:48;3.80;;;2.50;;
79124;SDS011;68527;39.470;-0.376;2023-12-28T06:36:14;3.10;;;2.30;;
79124;SDS011;68527;39.470;-0.376;2023-12-28T06:38:44;5.00;;;2.50;;
79124;SDS011;68527;39.470;-0.376;2023-12-28T06:41:11;4.20;;;2.80;;
79124;SDS011;68527;39.470;-0.376;2023-12-28T06:43:37;4.60;;;2.40;;
79124;SDS011;68527;39.470;-0.376;2023-12-28T06:46:03;4.30;;;2.60;;
79124;SDS011;68527;39.470;-0.376;2023-12-28T06:48:30;3.10;;;1.90;;
79124;SDS011;68527;39.470;-0.376;2023-12-28T06:50:56;3.50;;;2.20;;
79124;SDS011;68527;39.470;-0.376;2023-12-28T06:53:21;3.00;;;2.10;;
79124;SDS011;68527;39.470;-0.376;2023-12-28T06:58:14;4.00;;;2.20;;
79124;SDS011;68527;39.470;-0.376;2023-12-28T07:00:43;3.80;;;2.30;;
79124;SDS011;68527;39.470;-0.376;2023-12-28T07:03:13;4.00;;;2.50;;
79124;SDS011;68527;39.470;-0.376;2023-12-28T07:05:38;4.40;;;2.30;;
79124;SDS011;68527;39.470;-0.376;2023-12-28T07:08:05;4.70;;;2.40;;
79124;SDS011;68527;39.470;-0.376;2023-12-28T07:10:31;3.90;;;2.20;;
79124;SDS011;68527;39.470;-0.376;2023-12-28T07:12:58;2.80;;;2.20;;
79124;SDS011;68527;39.470;-0.376;2023-12-28T07:15:26;3.50;;;2.40;;
79124;SDS011;68527;39.470;-0.376;2023-12-28T07:20:19;4.10;;;2.40;;
79124;SDS011;68527;39.470;-0.376;2023-12-28T07:22:45;5.00;;;2.30;;
79124;SDS011;68527;39.470;-0.376;2023-12-28T07:25:11;4.60;;;2.20;;
79124;SDS011;68527;39.470;-0.376;2023-12-28T07:27:36;3.40;;;2.30;;
79124;SDS011;68527;39.470;-0.376;2023-12-28T07:30:04;3.80;;;2.50;;
79124;SDS011;68527;39.470;-0.376;2023-12-28T07:32:32;3.40;;;2.30;;
79124;SDS011;68527;39.470;-0.376;2023-12-28T07:34:57;3.40;;;2.00;;
79124;SDS011;68527;39.470;-0.376;2023-12-28T07:37:25;3.20;;;2.00;;
79124;SDS011;68527;39.470;-0.376;2023-12-28T07:39:51;3.20;;;2.20;;
79124;SDS011;68527;39.470;-0.376;2023-12-28T07:42:17;3.90;;;2.50;;
79124;SDS011;68527;39.470;-0.376;2023-12-28T07:44:43;3.40;;;2.00;;
79124;SDS011;68527;39.470;-0.376;2023-12-28T07:47:10;3.30;;;2.20;;
79124;SDS011;68527;39.470;-0.376;2023-12-28T07:49:37;4.40;;;2.20;;
79124;SDS011;68527;39.470;-0.376;2023-12-28T07:52:03;3.40;;;2.40;;
79124;SDS011;68527;39.470;-0.376;2023-12-28T07:54:30;3.90;;;2.00;;
79124;SDS011;68527;39.470;-0.376;2023-12-28T07:56:56;4.40;;;2.20;;
79124;SDS011;68527;39.470;-0.376;2023-12-28T07:59:22;3.00;;;2.20;;
79124;SDS011;68527;39.470;-0.376;2023-12-28T08:01:48;4.80;;;2.50;;
79124;SDS011;68527;39.470;-0.376;2023-12-28T08:04:15;4.00;;;2.20;;
79124;SDS011;68527;39.470;-0.376;2023-12-28T08:06:41;3.90;;;2.50;;
79124;SDS011;68527;39.470;-0.376;2023-12-28T08:09:06;5.90;;;2.70;;
79124;SDS011;68527;39.470;-0.376;2023-12-28T08:11:33;3.00;;;2.00;;
79124;SDS011;68527;39.470;-0.376;2023-12-28T08:14:00;5.10;;;2.70;;
79124;SDS011;68527;39.470;-0.376;2023-12-28T08:16:26;3.20;;;1.90;;
79124;SDS011;68527;39.470;-0.376;2023-12-28T08:18:52;3.30;;;2.50;;
79124;SDS011;68527;39.470;-0.376;2023-12-28T08:21:18;3.60;;;2.10;;
79124;SDS011;68527;39.470;-0.376;2023-12-28T08:23:45;4.20;;;2.10;;
79124;SDS011;68527;39.470;-0.376;2023-12-28T08:26:11;4.40;;;2.10;;
79124;SDS011;68527;39.470;-0.376;2023-12-28T08:28:37;4.50;;;2.60;;
79124;SDS011;68527;39.470;-0.376;2023-12-28T08:31:02;4.10;;;2.60;;
79124;SDS011;68527;39.470;-0.376;2023-12-28T08:33:30;3.80;;;2.70;;
79124;SDS011;68527;39.470;-0.376;2023-12-28T08:35:56;4.70;;;2.60;;
79124;SDS011;68527;39.470;-0.376;2023-12-28T08:38:22;3.40;;;2.40;;
79124;SDS011;68527;39.470;-0.376;2023-12-28T08:40:47;3.90;;;2.50;;
79124;SDS011;68527;39.470;-0.376;2023-12-28T08:43:14;3.80;;;2.60;;
79124;SDS011;68527;39.470;-0.376;2023-12-28T08:45:40;5.30;;;2.60;;
79124;SDS011;68527;39.470;-0.376;2023-12-28T08:48:06;5.00;;;2.70;;
79124;SDS011;68527;39.470;-0.376;2023-12-28T08:50:32;5.00;;;2.60;;
79124;SDS011;68527;39.470;-0.376;2023-12-28T08:52:59;5.00;;;2.70;;
79124;SDS011;68527;39.470;-0.376;2023-12-28T08:55:25;5.10;;;2.50;;
79124;SDS011;68527;39.470;-0.376;2023-12-28T08:57:50;4.10;;;2.70;;
79124;SDS011;68527;39.470;-0.376;2023-12-28T09:00:16;5.70;;;2.90;;
79124;SDS011;68527;39.470;-0.376;2023-12-28T09:02:44;3.50;;;2.70;;
79124;SDS011;68527;39.470;-0.376;2023-12-28T09:05:10;4.50;;;2.60;;
79124;SDS011;68527;39.470;-0.376;2023-12-28T09:07:36;4.70;;;3.10;;
79124;SDS011;68527;39.470;-0.376;2023-12-28T09:10:12;4.40;;;2.80;;
79124;SDS011;68527;39.470;-0.376;2023-12-28T09:12:39;4.20;;;2.60;;
79124;SDS011;68527;39.470;-0.376;2023-12-28T09:15:07;4.30;;;2.70;;
79124;SDS011;68527;39.470;-0.376;2023-12-28T09:17:34;5.30;;;2.90;;
79124;SDS011;68527;39.470;-0.376;2023-12-28T09:20:00;5.00;;;2.70;;
79124;SDS011;68527;39.470;-0.376;2023-12-28T09:22:28;6.30;;;3.40;;
79124;SDS011;68527;39.470;-0.376;2023-12-28T09:24:53;6.20;;;2.60;;
79124;SDS011;68527;39.470;-0.376;2023-12-28T09:27:19;3.90;;;2.80;;
79124;SDS011;68527;39.470;-0.376;2023-12-28T09:32:12;5.90;;;3.40;;
79124;SDS011;68527;39.470;-0.376;2023-12-28T09:34:38;4.60;;;2.80;;
79124;SDS011;68527;39.470;-0.376;2023-12-28T09:37:05;6.30;;;3.30;;
79124;SDS011;68527;39.470;-0.376;2023-12-28T09:39:32;5.60;;;2.80;;
79124;SDS011;68527;39.470;-0.376;2023-12-28T09:42:04;6.20;;;3.30;;
79124;SDS011;68527;39.470;-0.376;2023-12-28T09:44:36;6.90;;;3.30;;
79124;SDS011;68527;39.470;-0.376;2023-12-28T09:47:04;6.70;;;3.40;;
79124;SDS011;68527;39.470;-0.376;2023-12-28T09:49:34;5.30;;;2.80;;
79124;SDS011;68527;39.470;-0.376;2023-12-28T09:52:02;4.70;;;2.70;;
79124;SDS011;68527;39.470;-0.376;2023-12-28T09:54:28;9.00;;;3.40;;
79124;SDS011;68527;39.470;-0.376;2023-12-28T09:56:57;10.60;;;3.40;;
79124;SDS011;68527;39.470;-0.376;2023-12-28T09:59:24;6.00;;;2.90;;
79124;SDS011;68527;39.470;-0.376;2023-12-28T10:04:18;6.70;;;3.10;;
79124;SDS011;68527;39.470;-0.376;2023-12-28T10:06:44;6.50;;;2.60;;
79124;SDS011;68527;39.470;-0.376;2023-12-28T10:09:10;9.50;;;3.20;;
79124;SDS011;68527;39.470;-0.376;2023-12-28T10:11:36;7.40;;;2.60;;
79124;SDS011;68527;39.470;-0.376;2023-12-28T10:14:04;7.80;;;3.60;;
79124;SDS011;68527;39.470;-0.376;2023-12-28T10:16:32;5.80;;;2.80;;
79124;SDS011;68527;39.470;-0.376;2023-12-28T10:18:57;5.80;;;3.00;;
79124;SDS011;68527;39.470;-0.376;2023-12-28T10:21:26;7.20;;;3.20;;
79124;SDS011;68527;39.470;-0.376;2023-12-28T10:23:51;9.40;;;2.80;;
79124;SDS011;68527;39.470;-0.376;2023-12-28T10:26:20;7.60;;;3.10;;
79124;SDS011;68527;39.470;-0.376;2023-12-28T10:28:47;6.70;;;2.80;;
79124;SDS011;68527;39.470;-0.376;2023-12-28T10:31:14;8.40;;;3.50;;
79124;SDS011;68527;39.470;-0.376;2023-12-28T10:33:41;8.10;;;3.50;;
79124;SDS011;68527;39.470;-0.376;2023-12-28T10:36:12;5.80;;;3.40;;
79124;SDS011;68527;39.470;-0.376;2023-12-28T10:38:38;5.20;;;2.70;;
79124;SDS011;68527;39.470;-0.376;2023-12-28T10:41:08;5.30;;;2.80;;
79124;SDS011;68527;39.470;-0.376;2023-12-28T10:44:00;5.00;;;2.90;;
79124;SDS011;68527;39.470;-0.376;2023-12-28T10:46:31;8.30;;;2.60;;
79124;SDS011;68527;39.470;-0.376;2023-12-28T10:49:39;8.00;;;3.20;;
79124;SDS011;68527;39.470;-0.376;2023-12-28T10:51:49;5.80;;;2.70;;
79124;SDS011;68527;39.470;-0.376;2023-12-28T10:57:01;7.50;;;3.50;;
79124;SDS011;68527;39.470;-0.376;2023-12-28T11:02:19;5.70;;;3.00;;
79124;SDS011;68527;39.470;-0.376;2023-12-28T11:04:50;5.00;;;3.00;;
79124;SDS011;68527;39.470;-0.376;2023-12-28T11:07:19;8.00;;;3.10;;
79124;SDS011;68527;39.470;-0.376;2023-12-28T11:09:46;5.90;;;3.10;;
79124;SDS011;68527;39.470;-0.376;2023-12-28T11:12:12;8.20;;;3.00;;
79124;SDS011;68527;39.470;-0.376;2023-12-28T11:14:41;4.90;;;2.80;;
79124;SDS011;68527;39.470;-0.376;2023-12-28T11:17:09;5.20;;;2.70;;
79124;SDS011;68527;39.470;-0.376;2023-12-28T11:19:36;4.40;;;2.90;;
79124;SDS011;68527;39.470;-0.376;2023-12-28T11:22:03;5.70;;;2.90;;
79124;SDS011;68527;39.470;-0.376;2023-12-28T11:24:29;7.20;;;2.90;;
79124;SDS011;68527;39.470;-0.376;2023-12-28T11:26:56;5.10;;;2.50;;
79124;SDS011;68527;39.470;-0.376;2023-12-28T11:29:22;4.50;;;3.10;;
79124;SDS011;68527;39.470;-0.376;2023-12-28T11:31:50;5.60;;;3.00;;
79124;SDS011;68527;39.470;-0.376;2023-12-28T11:34:17;6.50;;;2.80;;
79124;SDS011;68527;39.470;-0.376;2023-12-28T11:36:49;5.20;;;3.00;;
79124;SDS011;68527;39.470;-0.376;2023-12-28T11:39:28;4.70;;;2.80;;
79124;SDS011;68527;39.470;-0.376;2023-12-28T11:42:00;4.80;;;2.80;;
79124;SDS011;68527;39.470;-0.376;2023-12-28T11:44:30;5.40;;;3.20;;
79124;SDS011;68527;39.470;-0.376;2023-12-28T11:46:57;5.50;;;3.00;;
79124;SDS011;68527;39.470;-0.376;2023-12-28T11:49:26;6.10;;;2.80;;
79124;SDS011;68527;39.470;-0.376;2023-12-28T11:51:54;4.70;;;3.00;;
79124;SDS011;68527;39.470;-0.376;2023-12-28T11:54:26;7.00;;;2.90;;
79124;SDS011;68527;39.470;-0.376;2023-12-28T11:56:52;3.80;;;2.50;;
79124;SDS011;68527;39.470;-0.376;2023-12-28T11:59:18;7.60;;;3.00;;
79124;SDS011;68527;39.470;-0.376;2023-12-28T12:01:52;5.60;;;3.20;;
79124;SDS011;68527;39.470;-0.376;2023-12-28T12:04:18;4.10;;;2.40;;
79124;SDS011;68527;39.470;-0.376;2023-12-28T12:06:46;4.70;;;2.90;;
79124;SDS011;68527;39.470;-0.376;2023-12-28T12:09:14;5.00;;;2.90;;
79124;SDS011;68527;39.470;-0.376;2023-12-28T12:11:40;4.80;;;3.10;;
79124;SDS011;68527;39.470;-0.376;2023-12-28T12:14:11;5.00;;;3.10;;
79124;SDS011;68527;39.470;-0.376;2023-12-28T12:16:37;6.40;;;3.00;;
79124;SDS011;68527;39.470;-0.376;2023-12-28T12:19:05;5.30;;;2.80;;
79124;SDS011;68527;39.470;-0.376;2023-12-28T12:21:34;5.00;;;3.10;;
79124;SDS011;68527;39.470;-0.376;2023-12-28T12:24:00;3.40;;;2.50;;
79124;SDS011;68527;39.470;-0.376;2023-12-28T12:26:30;6.60;;;3.10;;
79124;SDS011;68527;39.470;-0.376;2023-12-28T12:28:56;5.60;;;3.10;;
79124;SDS011;68527;39.470;-0.376;2023-12-28T12:31:23;5.60;;;2.90;;
79124;SDS011;68527;39.470;-0.376;2023-12-28T12:36:17;5.60;;;3.30;;
79124;SDS011;68527;39.470;-0.376;2023-12-28T12:38:43;6.20;;;3.30;;
79124;SDS011;68527;39.470;-0.376;2023-12-28T12:41:10;4.50;;;3.00;;
79124;SDS011;68527;39.470;-0.376;2023-12-28T12:43:38;6.50;;;2.70;;
79124;SDS011;68527;39.470;-0.376;2023-12-28T12:46:06;5.90;;;3.10;;
79124;SDS011;68527;39.470;-0.376;2023-12-28T12:48:32;7.40;;;3.50;;
79124;SDS011;68527;39.470;-0.376;2023-12-28T12:51:01;5.10;;;3.10;;
79124;SDS011;68527;39.470;-0.376;2023-12-28T12:53:35;5.70;;;3.30;;
79124;SDS011;68527;39.470;-0.376;2023-12-28T12:56:03;10.30;;;3.50;;
79124;SDS011;68527;39.470;-0.376;2023-12-28T12:58:30;5.90;;;3.50;;
79124;SDS011;68527;39.470;-0.376;2023-12-28T13:00:56;6.90;;;3.90;;
79124;SDS011;68527;39.470;-0.376;2023-12-28T13:03:22;6.60;;;4.00;;
79124;SDS011;68527;39.470;-0.376;2023-12-28T13:05:54;6.10;;;3.80;;
79124;SDS011;68527;39.470;-0.376;2023-12-28T13:08:21;5.40;;;3.40;;
79124;SDS011;68527;39.470;-0.376;2023-12-28T13:10:47;6.10;;;3.30;;
79124;SDS011;68527;39.470;-0.376;2023-12-28T13:13:16;4.80;;;3.50;;
79124;SDS011;68527;39.470;-0.376;2023-12-28T13:15:41;7.70;;;3.90;;
79124;SDS011;68527;39.470;-0.376;2023-12-28T13:18:07;6.90;;;4.30;;
79124;SDS011;68527;39.470;-0.376;2023-12-28T13:20:34;7.30;;;3.80;;
79124;SDS011;68527;39.470;-0.376;2023-12-28T13:23:01;5.40;;;3.40;;
79124;SDS011;68527;39.470;-0.376;2023-12-28T13:25:26;7.00;;;3.70;;
79124;SDS011;68527;39.470;-0.376;2023-12-28T13:27:52;6.30;;;3.30;;
79124;SDS011;68527;39.470;-0.376;2023-12-28T13:30:18;7.50;;;3.60;;
79124;SDS011;68527;39.470;-0.376;2023-12-28T13:32:45;8.40;;;3.60;;
79124;SDS011;68527;39.470;-0.376;2023-12-28T13:35:11;7.20;;;3.70;;
79124;SDS011;68527;39.470;-0.376;2023-12-28T13:37:36;4.50;;;3.40;;
79124;SDS011;68527;39.470;-0.376;2023-12-28T13:42:28;6.60;;;3.40;;
79124;SDS011;68527;39.470;-0.376;2023-12-28T13:44:54;4.60;;;3.10;;
79124;SDS011;68527;39.470;-0.376;2023-12-28T13:47:20;6.80;;;3.40;;
79124;SDS011;68527;39.470;-0.376;2023-12-28T13:52:14;6.70;;;3.50;;
79124;SDS011;68527;39.470;-0.376;2023-12-28T13:54:39;5.90;;;3.50;;
79124;SDS011;68527;39.470;-0.376;2023-12-28T13:57:06;5.40;;;3.90;;
79124;SDS011;68527;39.470;-0.376;2023-12-28T13:59:32;5.20;;;3.30;;
79124;SDS011;68527;39.470;-0.376;2023-12-28T14:01:59;5.60;;;4.10;;
79124;SDS011;68527;39.470;-0.376;2023-12-28T14:04:25;4.70;;;3.70;;
79124;SDS011;68527;39.470;-0.376;2023-12-28T14:06:51;8.00;;;4.00;;
79124;SDS011;68527;39.470;-0.376;2023-12-28T14:09:16;6.10;;;3.80;;
79124;SDS011;68527;39.470;-0.376;2023-12-28T14:11:46;5.70;;;3.90;;
79124;SDS011;68527;39.470;-0.376;2023-12-28T14:14:13;5.90;;;4.10;;
79124;SDS011;68527;39.470;-0.376;2023-12-28T14:16:39;7.80;;;3.90;;
79124;SDS011;68527;39.470;-0.376;2023-12-28T14:19:05;5.90;;;3.90;;
79124;SDS011;68527;39.470;-0.376;2023-12-28T14:21:36;5.50;;;3.50;;
79124;SDS011;68527;39.470;-0.376;2023-12-28T14:24:03;5.90;;;3.90;;
79124;SDS011;68527;39.470;-0.376;2023-12-28T14:26:31;6.00;;;3.80;;
79124;SDS011;68527;39.470;-0.376;2023-12-28T14:28:58;7.00;;;3.90;;
79124;SDS011;68527;39.470;-0.376;2023-12-28T14:31:29;7.80;;;4.10;;
79124;SDS011;68527;39.470;-0.376;2023-12-28T14:33:55;6.80;;;3.60;;
79124;SDS011;68527;39.470;-0.376;2023-12-28T14:36:30;8.40;;;3.60;;
79124;SDS011;68527;39.470;-0.376;2023-12-28T14:39:07;8.20;;;3.60;;
79124;SDS011;68527;39.470;-0.376;2023-12-28T14:41:34;6.00;;;3.80;;
79124;SDS011;68527;39.470;-0.376;2023-12-28T14:44:00;4.80;;;3.60;;
79124;SDS011;68527;39.470;-0.376;2023-12-28T14:46:28;5.10;;;3.50;;
79124;SDS011;68527;39.470;-0.376;2023-12-28T14:48:54;4.90;;;3.40;;
79124;SDS011;68527;39.470;-0.376;2023-12-28T14:51:20;5.40;;;3.80;;
79124;SDS011;68527;39.470;-0.376;2023-12-28T14:53:48;4.90;;;3.50;;
79124;SDS011;68527;39.470;-0.376;2023-12-28T14:56:15;4.50;;;3.80;;
79124;SDS011;68527;39.470;-0.376;2023-12-28T14:58:41;5.50;;;3.30;;
79124;SDS011;68527;39.470;-0.376;2023-12-28T15:01:13;6.90;;;3.90;;
79124;SDS011;68527;39.470;-0.376;2023-12-28T15:03:39;7.10;;;3.90;;
79124;SDS011;68527;39.470;-0.376;2023-12-28T15:06:05;5.10;;;3.60;;
79124;SDS011;68527;39.470;-0.376;2023-12-28T15:08:33;6.10;;;3.80;;
79124;SDS011;68527;39.470;-0.376;2023-12-28T15:10:59;6.40;;;3.80;;
79124;SDS011;68527;39.470;-0.376;2023-12-28T15:13:26;5.40;;;3.70;;
79124;SDS011;68527;39.470;-0.376;2023-12-28T15:15:54;5.90;;;3.50;;
79124;SDS011;68527;39.470;-0.376;2023-12-28T15:18:20;7.40;;;4.20;;
79124;SDS011;68527;39.470;-0.376;2023-12-28T15:20:46;6.30;;;3.90;;
79124;SDS011;68527;39.470;-0.376;2023-12-28T15:23:15;8.70;;;3.90;;
79124;SDS011;68527;39.470;-0.376;2023-12-28T15:25:42;7.80;;;3.90;;
79124;SDS011;68527;39.470;-0.376;2023-12-28T15:28:08;8.40;;;4.10;;